sensor_id;sensor_type;location;lat;lon;timestamp;P1;durP1;ratioP1;P2;durP2;ratioP2
28625;SDS011;18905;42.668;23.364;2024-02-21T00:00:53;3.70;;;2.60;;
28625;SDS011;18905;42.668;23.364;2024-02-21T00:03:18;4.35;;;3.05;;
28625;SDS011;18905;42.668;23.364;2024-02-21T00:05:45;3.13;;;2.58;;
28625;SDS011;18905;42.668;23.364;2024-02-21T00:08:10;4.68;;;3.15;;
28625;SDS011;18905;42.668;23.364;2024-02-21T00:10:36;4.07;;;2.97;;
28625;SDS011;18905;42.668;23.364;2024-02-21T00:13:01;4.90;;;2.83;;
28625;SDS011;18905;42.668;23.364;2024-02-21T00:15:27;8.30;;;3.45;;
28625;SDS011;18905;42.668;23.364;2024-02-21T00:17:53;6.75;;;3.72;;
28625;SDS011;18905;42.668;23.364;2024-02-21T00:20:19;4.13;;;2.75;;
28625;SDS011;18905;42.668;23.364;2024-02-21T00:22:45;8.43;;;3.55;;
28625;SDS011;18905;42.668;23.364;2024-02-21T00:25:10;4.28;;;2.75;;
28625;SDS011;18905;42.668;23.364;2024-02-21T00:27:36;2.47;;;2.28;;
28625;SDS011;18905;42.668;23.364;2024-02-21T00:30:02;4.00;;;1.52;;
28625;SDS011;18905;42.668;23.364;2024-02-21T00:32:27;5.03;;;3.35;;
28625;SDS011;18905;42.668;23.364;2024-02-21T00:34:53;4.43;;;3.00;;
28625;SDS011;18905;42.668;23.364;2024-02-21T00:37:18;3.15;;;2.08;;
28625;SDS011;18905;42.668;23.364;2024-02-21T00:39:44;3.05;;;1.90;;
28625;SDS011;18905;42.668;23.364;2024-02-21T00:42:09;4.07;;;2.72;;
28625;SDS011;18905;42.668;23.364;2024-02-21T00:44:34;5.05;;;3.33;;
28625;SDS011;18905;42.668;23.364;2024-02-21T00:47:00;2.50;;;2.15;;
28625;SDS011;18905;42.668;23.364;2024-02-21T00:49:25;5.00;;;3.20;;
28625;SDS011;18905;42.668;23.364;2024-02-21T00:51:51;3.90;;;2.60;;
28625;SDS011;18905;42.668;23.364;2024-02-21T00:54:16;1.77;;;1.67;;
28625;SDS011;18905;42.668;23.364;2024-02-21T00:56:42;3.42;;;1.88;;
28625;SDS011;18905;42.668;23.364;2024-02-21T00:59:08;2.97;;;2.42;;
28625;SDS011;18905;42.668;23.364;2024-02-21T01:01:33;8.23;;;2.97;;
28625;SDS011;18905;42.668;23.364;2024-02-21T01:03:58;4.57;;;3.45;;
28625;SDS011;18905;42.668;23.364;2024-02-21T01:06:24;4.18;;;3.47;;
28625;SDS011;18905;42.668;23.364;2024-02-21T01:08:49;2.75;;;2.00;;
28625;SDS011;18905;42.668;23.364;2024-02-21T01:11:15;3.15;;;2.20;;
28625;SDS011;18905;42.668;23.364;2024-02-21T01:13:41;2.03;;;1.58;;
28625;SDS011;18905;42.668;23.364;2024-02-21T01:16:06;4.70;;;3.03;;
28625;SDS011;18905;42.668;23.364;2024-02-21T01:18:36;5.18;;;2.90;;
28625;SDS011;18905;42.668;23.364;2024-02-21T01:21:02;3.60;;;2.58;;
28625;SDS011;18905;42.668;23.364;2024-02-21T01:23:31;4.60;;;3.22;;
28625;SDS011;18905;42.668;23.364;2024-02-21T01:25:57;3.60;;;2.28;;
28625;SDS011;18905;42.668;23.364;2024-02-21T01:28:22;5.15;;;1.92;;
28625;SDS011;18905;42.668;23.364;2024-02-21T01:30:48;6.28;;;2.92;;
28625;SDS011;18905;42.668;23.364;2024-02-21T01:33:13;3.88;;;2.47;;
28625;SDS011;18905;42.668;23.364;2024-02-21T01:35:39;4.00;;;2.63;;
28625;SDS011;18905;42.668;23.364;2024-02-21T01:38:04;4.47;;;2.05;;
28625;SDS011;18905;42.668;23.364;2024-02-21T01:40:29;6.72;;;3.97;;
28625;SDS011;18905;42.668;23.364;2024-02-21T01:42:55;3.92;;;2.65;;
28625;SDS011;18905;42.668;23.364;2024-02-21T01:45:20;4.40;;;3.40;;
28625;SDS011;18905;42.668;23.364;2024-02-21T01:47:46;3.80;;;2.63;;
28625;SDS011;18905;42.668;23.364;2024-02-21T01:50:12;4.25;;;2.95;;
28625;SDS011;18905;42.668;23.364;2024-02-21T01:52:42;4.30;;;3.42;;
28625;SDS011;18905;42.668;23.364;2024-02-21T01:55:10;4.40;;;3.20;;
28625;SDS011;18905;42.668;23.364;2024-02-21T01:57:38;4.05;;;2.78;;
28625;SDS011;18905;42.668;23.364;2024-02-21T02:00:04;4.72;;;3.30;;
28625;SDS011;18905;42.668;23.364;2024-02-21T02:02:31;6.00;;;3.38;;
28625;SDS011;18905;42.668;23.364;2024-02-21T02:04:57;3.65;;;3.13;;
28625;SDS011;18905;42.668;23.364;2024-02-21T02:07:22;4.47;;;2.90;;
28625;SDS011;18905;42.668;23.364;2024-02-21T02:09:48;6.45;;;4.38;;
28625;SDS011;18905;42.668;23.364;2024-02-21T02:12:13;5.03;;;3.55;;
28625;SDS011;18905;42.668;23.364;2024-02-21T02:14:38;2.83;;;2.45;;
28625;SDS011;18905;42.668;23.364;2024-02-21T02:17:04;3.92;;;2.00;;
28625;SDS011;18905;42.668;23.364;2024-02-21T02:19:30;2.95;;;2.15;;
28625;SDS011;18905;42.668;23.364;2024-02-21T02:22:00;4.28;;;2.55;;
28625;SDS011;18905;42.668;23.364;2024-02-21T02:24:38;9.23;;;3.75;;
28625;SDS011;18905;42.668;23.364;2024-02-21T02:27:03;5.20;;;3.67;;
28625;SDS011;18905;42.668;23.364;2024-02-21T02:29:31;6.03;;;3.92;;
28625;SDS011;18905;42.668;23.364;2024-02-21T02:31:57;7.03;;;4.63;;
28625;SDS011;18905;42.668;23.364;2024-02-21T02:34:22;11.50;;;4.28;;
28625;SDS011;18905;42.668;23.364;2024-02-21T02:36:48;8.18;;;5.05;;
28625;SDS011;18905;42.668;23.364;2024-02-21T02:39:14;4.45;;;3.97;;
28625;SDS011;18905;42.668;23.364;2024-02-21T02:41:39;11.60;;;4.25;;
28625;SDS011;18905;42.668;23.364;2024-02-21T02:44:05;7.18;;;3.88;;
28625;SDS011;18905;42.668;23.364;2024-02-21T02:46:30;6.07;;;3.30;;
28625;SDS011;18905;42.668;23.364;2024-02-21T02:48:56;11.60;;;5.00;;
28625;SDS011;18905;42.668;23.364;2024-02-21T02:51:21;9.27;;;4.95;;
28625;SDS011;18905;42.668;23.364;2024-02-21T02:53:46;7.30;;;4.05;;
28625;SDS011;18905;42.668;23.364;2024-02-21T02:56:15;9.88;;;5.30;;
28625;SDS011;18905;42.668;23.364;2024-02-21T02:58:42;9.75;;;5.25;;
28625;SDS011;18905;42.668;23.364;2024-02-21T03:01:08;7.82;;;4.63;;
28625;SDS011;18905;42.668;23.364;2024-02-21T03:03:34;9.95;;;4.75;;
28625;SDS011;18905;42.668;23.364;2024-02-21T03:05:59;10.57;;;4.63;;
28625;SDS011;18905;42.668;23.364;2024-02-21T03:08:24;10.48;;;5.47;;
28625;SDS011;18905;42.668;23.364;2024-02-21T03:10:50;9.77;;;5.03;;
28625;SDS011;18905;42.668;23.364;2024-02-21T03:13:15;7.38;;;5.53;;
28625;SDS011;18905;42.668;23.364;2024-02-21T03:15:41;12.43;;;5.57;;
28625;SDS011;18905;42.668;23.364;2024-02-21T03:18:06;10.50;;;5.75;;
28625;SDS011;18905;42.668;23.364;2024-02-21T03:20:31;8.60;;;5.63;;
28625;SDS011;18905;42.668;23.364;2024-02-21T03:22:57;6.75;;;3.90;;
28625;SDS011;18905;42.668;23.364;2024-02-21T03:25:23;10.60;;;5.97;;
28625;SDS011;18905;42.668;23.364;2024-02-21T03:27:48;6.25;;;3.28;;
28625;SDS011;18905;42.668;23.364;2024-02-21T03:30:13;10.57;;;5.60;;
28625;SDS011;18905;42.668;23.364;2024-02-21T03:32:39;6.25;;;4.65;;
28625;SDS011;18905;42.668;23.364;2024-02-21T03:35:04;6.82;;;3.90;;
28625;SDS011;18905;42.668;23.364;2024-02-21T03:37:30;10.27;;;5.53;;
28625;SDS011;18905;42.668;23.364;2024-02-21T03:39:56;10.73;;;4.53;;
28625;SDS011;18905;42.668;23.364;2024-02-21T03:42:21;6.78;;;3.53;;
28625;SDS011;18905;42.668;23.364;2024-02-21T03:44:46;8.18;;;5.82;;
28625;SDS011;18905;42.668;23.364;2024-02-21T03:47:12;20.90;;;13.13;;
28625;SDS011;18905;42.668;23.364;2024-02-21T03:49:37;8.20;;;4.97;;
28625;SDS011;18905;42.668;23.364;2024-02-21T03:52:03;9.82;;;5.13;;
28625;SDS011;18905;42.668;23.364;2024-02-21T03:54:28;11.05;;;5.90;;
28625;SDS011;18905;42.668;23.364;2024-02-21T03:56:54;9.00;;;4.28;;
28625;SDS011;18905;42.668;23.364;2024-02-21T03:59:19;14.27;;;6.45;;
28625;SDS011;18905;42.668;23.364;2024-02-21T04:01:44;5.40;;;3.35;;
28625;SDS011;18905;42.668;23.364;2024-02-21T04:04:10;9.13;;;5.50;;
28625;SDS011;18905;42.668;23.364;2024-02-21T04:06:35;10.18;;;4.70;;
28625;SDS011;18905;42.668;23.364;2024-02-21T04:09:01;11.10;;;5.75;;
28625;SDS011;18905;42.668;23.364;2024-02-21T04:11:27;6.15;;;3.63;;
28625;SDS011;18905;42.668;23.364;2024-02-21T04:13:52;7.82;;;5.10;;
28625;SDS011;18905;42.668;23.364;2024-02-21T04:16:17;9.73;;;5.93;;
28625;SDS011;18905;42.668;23.364;2024-02-21T04:18:43;11.60;;;6.70;;
28625;SDS011;18905;42.668;23.364;2024-02-21T04:21:09;9.20;;;5.53;;
28625;SDS011;18905;42.668;23.364;2024-02-21T04:23:35;10.02;;;5.15;;
28625;SDS011;18905;42.668;23.364;2024-02-21T04:26:00;8.10;;;4.13;;
28625;SDS011;18905;42.668;23.364;2024-02-21T04:28:26;8.88;;;5.70;;
28625;SDS011;18905;42.668;23.364;2024-02-21T04:30:51;8.82;;;4.60;;
28625;SDS011;18905;42.668;23.364;2024-02-21T04:33:17;11.30;;;5.07;;
28625;SDS011;18905;42.668;23.364;2024-02-21T04:35:43;10.88;;;5.82;;
28625;SDS011;18905;42.668;23.364;2024-02-21T04:38:08;7.97;;;5.50;;
28625;SDS011;18905;42.668;23.364;2024-02-21T04:40:33;10.38;;;5.47;;
28625;SDS011;18905;42.668;23.364;2024-02-21T04:42:59;10.77;;;6.25;;
28625;SDS011;18905;42.668;23.364;2024-02-21T04:45:24;9.32;;;5.97;;
28625;SDS011;18905;42.668;23.364;2024-02-21T04:47:50;12.65;;;5.88;;
28625;SDS011;18905;42.668;23.364;2024-02-21T04:50:15;9.27;;;5.38;;
28625;SDS011;18905;42.668;23.364;2024-02-21T04:52:41;6.63;;;3.95;;
28625;SDS011;18905;42.668;23.364;2024-02-21T04:55:06;11.02;;;5.30;;
28625;SDS011;18905;42.668;23.364;2024-02-21T04:57:32;10.00;;;5.47;;
28625;SDS011;18905;42.668;23.364;2024-02-21T04:59:57;10.20;;;5.40;;
28625;SDS011;18905;42.668;23.364;2024-02-21T05:02:23;9.90;;;4.82;;
28625;SDS011;18905;42.668;23.364;2024-02-21T05:04:49;11.77;;;5.78;;
28625;SDS011;18905;42.668;23.364;2024-02-21T05:07:15;14.75;;;6.45;;
28625;SDS011;18905;42.668;23.364;2024-02-21T05:09:42;13.70;;;6.70;;
28625;SDS011;18905;42.668;23.364;2024-02-21T05:12:08;9.40;;;6.07;;
28625;SDS011;18905;42.668;23.364;2024-02-21T05:14:33;14.10;;;5.85;;
28625;SDS011;18905;42.668;23.364;2024-02-21T05:16:59;13.10;;;6.70;;
28625;SDS011;18905;42.668;23.364;2024-02-21T05:19:24;11.55;;;6.18;;
28625;SDS011;18905;42.668;23.364;2024-02-21T05:21:50;10.63;;;5.63;;
28625;SDS011;18905;42.668;23.364;2024-02-21T05:24:15;12.35;;;6.15;;
28625;SDS011;18905;42.668;23.364;2024-02-21T05:26:40;10.82;;;5.93;;
28625;SDS011;18905;42.668;23.364;2024-02-21T05:29:06;12.98;;;6.72;;
28625;SDS011;18905;42.668;23.364;2024-02-21T05:34:15;13.25;;;6.03;;
28625;SDS011;18905;42.668;23.364;2024-02-21T05:36:41;11.43;;;6.53;;
28625;SDS011;18905;42.668;23.364;2024-02-21T05:39:06;9.77;;;5.85;;
28625;SDS011;18905;42.668;23.364;2024-02-21T05:41:32;12.88;;;6.40;;
28625;SDS011;18905;42.668;23.364;2024-02-21T05:43:57;10.68;;;6.47;;
28625;SDS011;18905;42.668;23.364;2024-02-21T05:46:24;11.52;;;6.68;;
28625;SDS011;18905;42.668;23.364;2024-02-21T05:48:49;10.32;;;6.40;;
28625;SDS011;18905;42.668;23.364;2024-02-21T05:51:15;13.38;;;7.22;;
28625;SDS011;18905;42.668;23.364;2024-02-21T05:53:40;12.30;;;6.78;;
28625;SDS011;18905;42.668;23.364;2024-02-21T05:56:12;11.35;;;6.60;;
28625;SDS011;18905;42.668;23.364;2024-02-21T05:58:38;9.45;;;6.07;;
28625;SDS011;18905;42.668;23.364;2024-02-21T06:01:04;14.68;;;7.25;;
28625;SDS011;18905;42.668;23.364;2024-02-21T06:03:31;11.52;;;6.93;;
28625;SDS011;18905;42.668;23.364;2024-02-21T06:05:57;12.27;;;6.50;;
28625;SDS011;18905;42.668;23.364;2024-02-21T06:08:23;14.30;;;7.10;;
28625;SDS011;18905;42.668;23.364;2024-02-21T06:10:49;11.43;;;6.68;;
28625;SDS011;18905;42.668;23.364;2024-02-21T06:13:17;13.45;;;7.30;;
28625;SDS011;18905;42.668;23.364;2024-02-21T06:15:42;12.20;;;6.97;;
28625;SDS011;18905;42.668;23.364;2024-02-21T06:18:07;16.33;;;7.68;;
28625;SDS011;18905;42.668;23.364;2024-02-21T06:20:33;16.17;;;7.43;;
28625;SDS011;18905;42.668;23.364;2024-02-21T06:23:01;13.20;;;7.22;;
28625;SDS011;18905;42.668;23.364;2024-02-21T06:25:26;14.55;;;7.72;;
28625;SDS011;18905;42.668;23.364;2024-02-21T06:27:51;13.73;;;7.25;;
28625;SDS011;18905;42.668;23.364;2024-02-21T06:30:17;14.93;;;8.23;;
28625;SDS011;18905;42.668;23.364;2024-02-21T06:32:42;18.33;;;7.60;;
28625;SDS011;18905;42.668;23.364;2024-02-21T06:35:07;16.92;;;8.25;;
28625;SDS011;18905;42.668;23.364;2024-02-21T06:37:33;15.10;;;8.05;;
28625;SDS011;18905;42.668;23.364;2024-02-21T06:39:58;20.02;;;8.27;;
28625;SDS011;18905;42.668;23.364;2024-02-21T06:42:24;16.95;;;8.82;;
28625;SDS011;18905;42.668;23.364;2024-02-21T06:44:50;16.77;;;8.35;;
28625;SDS011;18905;42.668;23.364;2024-02-21T06:47:15;19.38;;;9.15;;
28625;SDS011;18905;42.668;23.364;2024-02-21T06:49:40;18.50;;;8.43;;
28625;SDS011;18905;42.668;23.364;2024-02-21T06:52:06;17.23;;;8.00;;
28625;SDS011;18905;42.668;23.364;2024-02-21T06:54:32;15.13;;;8.18;;
28625;SDS011;18905;42.668;23.364;2024-02-21T06:56:57;22.25;;;8.65;;
28625;SDS011;18905;42.668;23.364;2024-02-21T06:59:24;17.80;;;8.65;;
28625;SDS011;18905;42.668;23.364;2024-02-21T07:01:53;18.40;;;8.73;;
28625;SDS011;18905;42.668;23.364;2024-02-21T07:04:20;16.02;;;8.07;;
28625;SDS011;18905;42.668;23.364;2024-02-21T07:06:45;15.20;;;8.10;;
28625;SDS011;18905;42.668;23.364;2024-02-21T07:09:11;13.93;;;8.18;;
28625;SDS011;18905;42.668;23.364;2024-02-21T07:11:36;18.52;;;9.85;;
28625;SDS011;18905;42.668;23.364;2024-02-21T07:14:02;15.30;;;8.05;;
28625;SDS011;18905;42.668;23.364;2024-02-21T07:16:27;18.80;;;8.32;;
28625;SDS011;18905;42.668;23.364;2024-02-21T07:18:54;15.40;;;7.63;;
28625;SDS011;18905;42.668;23.364;2024-02-21T07:21:20;15.00;;;7.82;;
28625;SDS011;18905;42.668;23.364;2024-02-21T07:23:45;12.90;;;6.70;;
28625;SDS011;18905;42.668;23.364;2024-02-21T07:26:11;13.82;;;6.95;;
28625;SDS011;18905;42.668;23.364;2024-02-21T07:28:36;16.23;;;8.05;;
28625;SDS011;18905;42.668;23.364;2024-02-21T07:31:02;14.40;;;7.50;;
28625;SDS011;18905;42.668;23.364;2024-02-21T07:33:28;17.58;;;7.65;;
28625;SDS011;18905;42.668;23.364;2024-02-21T07:35:53;15.50;;;7.95;;
28625;SDS011;18905;42.668;23.364;2024-02-21T07:38:18;11.82;;;6.32;;
28625;SDS011;18905;42.668;23.364;2024-02-21T07:40:45;7.68;;;4.55;;
28625;SDS011;18905;42.668;23.364;2024-02-21T07:43:10;18.05;;;7.93;;
28625;SDS011;18905;42.668;23.364;2024-02-21T07:45:35;20.13;;;8.05;;
28625;SDS011;18905;42.668;23.364;2024-02-21T07:48:01;12.82;;;7.40;;
28625;SDS011;18905;42.668;23.364;2024-02-21T07:50:27;6.35;;;4.05;;
28625;SDS011;18905;42.668;23.364;2024-02-21T07:52:52;9.88;;;5.28;;
28625;SDS011;18905;42.668;23.364;2024-02-21T07:55:18;17.50;;;6.35;;
28625;SDS011;18905;42.668;23.364;2024-02-21T07:57:43;18.50;;;7.70;;
28625;SDS011;18905;42.668;23.364;2024-02-21T08:00:09;14.27;;;6.60;;
28625;SDS011;18905;42.668;23.364;2024-02-21T08:02:38;16.73;;;8.18;;
28625;SDS011;18905;42.668;23.364;2024-02-21T08:05:04;14.68;;;7.72;;
28625;SDS011;18905;42.668;23.364;2024-02-21T08:07:30;13.75;;;6.47;;
28625;SDS011;18905;42.668;23.364;2024-02-21T08:09:56;14.52;;;7.82;;
28625;SDS011;18905;42.668;23.364;2024-02-21T08:12:21;14.60;;;7.30;;
28625;SDS011;18905;42.668;23.364;2024-02-21T08:14:47;16.58;;;8.45;;
28625;SDS011;18905;42.668;23.364;2024-02-21T08:17:13;14.50;;;7.60;;
28625;SDS011;18905;42.668;23.364;2024-02-21T08:19:39;17.73;;;7.72;;
28625;SDS011;18905;42.668;23.364;2024-02-21T08:22:04;16.02;;;7.18;;
28625;SDS011;18905;42.668;23.364;2024-02-21T08:24:29;14.00;;;6.78;;
28625;SDS011;18905;42.668;23.364;2024-02-21T08:26:56;19.27;;;8.07;;
28625;SDS011;18905;42.668;23.364;2024-02-21T08:29:21;12.52;;;6.90;;
28625;SDS011;18905;42.668;23.364;2024-02-21T08:31:47;14.45;;;7.15;;
28625;SDS011;18905;42.668;23.364;2024-02-21T08:34:13;14.85;;;6.85;;
28625;SDS011;18905;42.668;23.364;2024-02-21T08:36:39;18.50;;;7.50;;
28625;SDS011;18905;42.668;23.364;2024-02-21T08:39:04;12.35;;;7.20;;
28625;SDS011;18905;42.668;23.364;2024-02-21T08:41:33;17.83;;;7.60;;
28625;SDS011;18905;42.668;23.364;2024-02-21T08:43:59;13.82;;;7.68;;
28625;SDS011;18905;42.668;23.364;2024-02-21T08:46:25;15.45;;;7.28;;
28625;SDS011;18905;42.668;23.364;2024-02-21T08:48:51;9.93;;;5.80;;
28625;SDS011;18905;42.668;23.364;2024-02-21T08:51:17;8.15;;;4.72;;
28625;SDS011;18905;42.668;23.364;2024-02-21T08:53:46;9.25;;;6.25;;
28625;SDS011;18905;42.668;23.364;2024-02-21T08:58:38;10.77;;;5.72;;
28625;SDS011;18905;42.668;23.364;2024-02-21T09:01:06;10.90;;;6.45;;
28625;SDS011;18905;42.668;23.364;2024-02-21T09:03:37;8.70;;;5.47;;
28625;SDS011;18905;42.668;23.364;2024-02-21T09:06:03;9.82;;;5.38;;
28625;SDS011;18905;42.668;23.364;2024-02-21T09:08:33;9.23;;;5.50;;
28625;SDS011;18905;42.668;23.364;2024-02-21T09:10:59;12.00;;;6.47;;
28625;SDS011;18905;42.668;23.364;2024-02-21T09:13:26;8.60;;;4.40;;
28625;SDS011;18905;42.668;23.364;2024-02-21T09:15:51;10.52;;;4.97;;
28625;SDS011;18905;42.668;23.364;2024-02-21T09:18:17;12.18;;;6.15;;
28625;SDS011;18905;42.668;23.364;2024-02-21T09:20:43;14.23;;;6.07;;
28625;SDS011;18905;42.668;23.364;2024-02-21T09:23:08;10.27;;;6.13;;
28625;SDS011;18905;42.668;23.364;2024-02-21T09:25:35;9.77;;;5.35;;
28625;SDS011;18905;42.668;23.364;2024-02-21T09:28:01;13.63;;;6.53;;
28625;SDS011;18905;42.668;23.364;2024-02-21T09:30:28;10.80;;;5.07;;
28625;SDS011;18905;42.668;23.364;2024-02-21T09:32:53;13.50;;;6.95;;
28625;SDS011;18905;42.668;23.364;2024-02-21T09:35:19;9.95;;;5.90;;
28625;SDS011;18905;42.668;23.364;2024-02-21T09:37:47;10.73;;;6.07;;
28625;SDS011;18905;42.668;23.364;2024-02-21T09:40:12;9.73;;;5.72;;
28625;SDS011;18905;42.668;23.364;2024-02-21T09:42:41;14.13;;;6.90;;
28625;SDS011;18905;42.668;23.364;2024-02-21T09:45:14;10.38;;;5.93;;
28625;SDS011;18905;42.668;23.364;2024-02-21T09:50:37;9.75;;;3.50;;
28625;SDS011;18905;42.668;23.364;2024-02-21T09:53:06;8.93;;;5.53;;
28625;SDS011;18905;42.668;23.364;2024-02-21T09:55:32;12.93;;;7.20;;
28625;SDS011;18905;42.668;23.364;2024-02-21T09:57:59;11.05;;;6.70;;
28625;SDS011;18905;42.668;23.364;2024-02-21T10:00:26;9.70;;;6.25;;
28625;SDS011;18905;42.668;23.364;2024-02-21T10:02:53;13.15;;;6.75;;
28625;SDS011;18905;42.668;23.364;2024-02-21T10:05:18;13.90;;;7.03;;
28625;SDS011;18905;42.668;23.364;2024-02-21T10:07:44;6.60;;;4.82;;
28625;SDS011;18905;42.668;23.364;2024-02-21T10:10:11;7.78;;;4.63;;
28625;SDS011;18905;42.668;23.364;2024-02-21T10:12:36;11.05;;;6.20;;
28625;SDS011;18905;42.668;23.364;2024-02-21T10:15:05;14.02;;;7.78;;
28625;SDS011;18905;42.668;23.364;2024-02-21T10:17:34;6.15;;;4.13;;
28625;SDS011;18905;42.668;23.364;2024-02-21T10:20:10;10.70;;;6.32;;
28625;SDS011;18905;42.668;23.364;2024-02-21T10:22:37;11.75;;;5.85;;
28625;SDS011;18905;42.668;23.364;2024-02-21T10:25:11;12.90;;;5.03;;
28625;SDS011;18905;42.668;23.364;2024-02-21T10:27:40;11.57;;;6.22;;
28625;SDS011;18905;42.668;23.364;2024-02-21T10:30:15;4.68;;;3.53;;
28625;SDS011;18905;42.668;23.364;2024-02-21T10:35:25;3.17;;;2.30;;
28625;SDS011;18905;42.668;23.364;2024-02-21T10:37:52;9.32;;;4.47;;
28625;SDS011;18905;42.668;23.364;2024-02-21T10:40:20;11.23;;;5.28;;
28625;SDS011;18905;42.668;23.364;2024-02-21T10:42:56;6.13;;;4.50;;
28625;SDS011;18905;42.668;23.364;2024-02-21T10:45:30;7.00;;;4.63;;
28625;SDS011;18905;42.668;23.364;2024-02-21T10:48:01;7.47;;;4.93;;
28625;SDS011;18905;42.668;23.364;2024-02-21T10:50:27;7.13;;;4.93;;
28625;SDS011;18905;42.668;23.364;2024-02-21T10:53:05;9.48;;;4.60;;
28625;SDS011;18905;42.668;23.364;2024-02-21T10:55:38;6.65;;;4.20;;
28625;SDS011;18905;42.668;23.364;2024-02-21T10:58:09;5.47;;;4.10;;
28625;SDS011;18905;42.668;23.364;2024-02-21T11:00:37;6.60;;;3.53;;
28625;SDS011;18905;42.668;23.364;2024-02-21T11:03:03;5.43;;;4.35;;
28625;SDS011;18905;42.668;23.364;2024-02-21T11:05:30;6.28;;;4.63;;
28625;SDS011;18905;42.668;23.364;2024-02-21T11:07:56;7.18;;;4.60;;
28625;SDS011;18905;42.668;23.364;2024-02-21T11:10:23;13.40;;;4.75;;
28625;SDS011;18905;42.668;23.364;2024-02-21T11:12:51;5.97;;;4.25;;
28625;SDS011;18905;42.668;23.364;2024-02-21T11:15:18;6.95;;;4.20;;
28625;SDS011;18905;42.668;23.364;2024-02-21T11:17:53;6.00;;;4.30;;
28625;SDS011;18905;42.668;23.364;2024-02-21T11:20:20;3.80;;;3.42;;
28625;SDS011;18905;42.668;23.364;2024-02-21T11:22:46;4.50;;;4.05;;
28625;SDS011;18905;42.668;23.364;2024-02-21T11:25:13;5.82;;;4.20;;
28625;SDS011;18905;42.668;23.364;2024-02-21T11:27:46;5.55;;;3.38;;
28625;SDS011;18905;42.668;23.364;2024-02-21T11:30:12;3.10;;;2.80;;
28625;SDS011;18905;42.668;23.364;2024-02-21T11:32:39;3.15;;;2.67;;
28625;SDS011;18905;42.668;23.364;2024-02-21T11:35:05;3.45;;;2.72;;
28625;SDS011;18905;42.668;23.364;2024-02-21T11:37:32;4.50;;;2.58;;
28625;SDS011;18905;42.668;23.364;2024-02-21T11:39:58;2.03;;;1.85;;
28625;SDS011;18905;42.668;23.364;2024-02-21T11:42:25;2.03;;;1.83;;
28625;SDS011;18905;42.668;23.364;2024-02-21T11:44:51;4.22;;;3.28;;
28625;SDS011;18905;42.668;23.364;2024-02-21T11:47:18;4.20;;;3.38;;
28625;SDS011;18905;42.668;23.364;2024-02-21T11:49:47;3.85;;;2.47;;
28625;SDS011;18905;42.668;23.364;2024-02-21T11:52:22;3.75;;;2.55;;
28625;SDS011;18905;42.668;23.364;2024-02-21T11:54:52;3.53;;;1.90;;
28625;SDS011;18905;42.668;23.364;2024-02-21T11:57:18;3.78;;;2.25;;
28625;SDS011;18905;42.668;23.364;2024-02-21T11:59:44;3.83;;;2.92;;
28625;SDS011;18905;42.668;23.364;2024-02-21T12:02:10;4.50;;;3.00;;
28625;SDS011;18905;42.668;23.364;2024-02-21T12:04:36;3.28;;;2.97;;
28625;SDS011;18905;42.668;23.364;2024-02-21T12:07:02;2.97;;;2.30;;
28625;SDS011;18905;42.668;23.364;2024-02-21T12:09:29;2.58;;;2.38;;
28625;SDS011;18905;42.668;23.364;2024-02-21T12:11:58;4.50;;;2.88;;
28625;SDS011;18905;42.668;23.364;2024-02-21T12:14:25;2.88;;;2.55;;
28625;SDS011;18905;42.668;23.364;2024-02-21T12:16:51;4.05;;;3.13;;
28625;SDS011;18905;42.668;23.364;2024-02-21T12:19:17;5.47;;;2.47;;
28625;SDS011;18905;42.668;23.364;2024-02-21T12:21:42;3.17;;;2.78;;
28625;SDS011;18905;42.668;23.364;2024-02-21T12:24:15;3.70;;;3.38;;
28625;SDS011;18905;42.668;23.364;2024-02-21T12:26:42;2.75;;;2.30;;
28625;SDS011;18905;42.668;23.364;2024-02-21T12:29:08;4.50;;;3.10;;
28625;SDS011;18905;42.668;23.364;2024-02-21T12:31:37;4.93;;;2.85;;
28625;SDS011;18905;42.668;23.364;2024-02-21T12:34:03;6.88;;;3.25;;
28625;SDS011;18905;42.668;23.364;2024-02-21T12:36:29;5.93;;;3.25;;
28625;SDS011;18905;42.668;23.364;2024-02-21T12:38:54;6.03;;;4.63;;
28625;SDS011;18905;42.668;23.364;2024-02-21T12:41:20;3.20;;;2.40;;
28625;SDS011;18905;42.668;23.364;2024-02-21T12:43:45;2.50;;;2.30;;
28625;SDS011;18905;42.668;23.364;2024-02-21T12:46:12;4.05;;;2.85;;
28625;SDS011;18905;42.668;23.364;2024-02-21T12:48:37;2.03;;;1.83;;
28625;SDS011;18905;42.668;23.364;2024-02-21T12:51:03;3.28;;;2.20;;
28625;SDS011;18905;42.668;23.364;2024-02-21T12:53:29;5.80;;;3.50;;
28625;SDS011;18905;42.668;23.364;2024-02-21T12:55:55;3.80;;;3.08;;
28625;SDS011;18905;42.668;23.364;2024-02-21T12:58:21;6.25;;;2.80;;
28625;SDS011;18905;42.668;23.364;2024-02-21T13:00:47;6.00;;;3.05;;
28625;SDS011;18905;42.668;23.364;2024-02-21T13:03:12;6.57;;;3.63;;
28625;SDS011;18905;42.668;23.364;2024-02-21T13:05:37;7.47;;;3.88;;
28625;SDS011;18905;42.668;23.364;2024-02-21T13:08:04;5.32;;;3.63;;
28625;SDS011;18905;42.668;23.364;2024-02-21T13:10:34;4.72;;;3.45;;
28625;SDS011;18905;42.668;23.364;2024-02-21T13:12:59;6.82;;;4.15;;
28625;SDS011;18905;42.668;23.364;2024-02-21T13:15:26;5.53;;;4.00;;
28625;SDS011;18905;42.668;23.364;2024-02-21T13:17:53;5.47;;;3.88;;
28625;SDS011;18905;42.668;23.364;2024-02-21T13:20:19;4.22;;;3.20;;
28625;SDS011;18905;42.668;23.364;2024-02-21T13:22:45;5.85;;;3.65;;
28625;SDS011;18905;42.668;23.364;2024-02-21T13:25:11;5.05;;;3.65;;
28625;SDS011;18905;42.668;23.364;2024-02-21T13:27:40;3.05;;;2.78;;
28625;SDS011;18905;42.668;23.364;2024-02-21T13:30:05;4.53;;;2.97;;
28625;SDS011;18905;42.668;23.364;2024-02-21T13:32:35;6.65;;;3.88;;
28625;SDS011;18905;42.668;23.364;2024-02-21T13:35:00;7.95;;;4.57;;
28625;SDS011;18905;42.668;23.364;2024-02-21T13:37:26;7.53;;;5.30;;
28625;SDS011;18905;42.668;23.364;2024-02-21T13:39:52;4.47;;;2.88;;
28625;SDS011;18905;42.668;23.364;2024-02-21T13:42:18;5.32;;;3.33;;
28625;SDS011;18905;42.668;23.364;2024-02-21T13:44:44;6.75;;;4.30;;
28625;SDS011;18905;42.668;23.364;2024-02-21T13:47:10;6.43;;;4.15;;
28625;SDS011;18905;42.668;23.364;2024-02-21T13:49:38;4.82;;;3.65;;
28625;SDS011;18905;42.668;23.364;2024-02-21T13:52:04;4.85;;;2.78;;
28625;SDS011;18905;42.668;23.364;2024-02-21T13:54:30;6.78;;;4.35;;
28625;SDS011;18905;42.668;23.364;2024-02-21T13:56:55;3.40;;;2.25;;
28625;SDS011;18905;42.668;23.364;2024-02-21T13:59:20;4.07;;;3.65;;
28625;SDS011;18905;42.668;23.364;2024-02-21T14:01:46;7.85;;;3.53;;
28625;SDS011;18905;42.668;23.364;2024-02-21T14:04:11;4.47;;;3.22;;
28625;SDS011;18905;42.668;23.364;2024-02-21T14:06:37;6.82;;;4.45;;
28625;SDS011;18905;42.668;23.364;2024-02-21T14:09:08;8.45;;;5.15;;
28625;SDS011;18905;42.668;23.364;2024-02-21T14:11:33;9.80;;;4.57;;
28625;SDS011;18905;42.668;23.364;2024-02-21T14:13:59;5.53;;;3.47;;
28625;SDS011;18905;42.668;23.364;2024-02-21T14:16:25;3.80;;;2.10;;
28625;SDS011;18905;42.668;23.364;2024-02-21T14:18:50;5.95;;;3.58;;
28625;SDS011;18905;42.668;23.364;2024-02-21T14:21:15;6.35;;;3.70;;
28625;SDS011;18905;42.668;23.364;2024-02-21T14:23:41;5.78;;;3.60;;
28625;SDS011;18905;42.668;23.364;2024-02-21T14:26:06;4.68;;;4.00;;
28625;SDS011;18905;42.668;23.364;2024-02-21T14:28:32;2.47;;;2.28;;
28625;SDS011;18905;42.668;23.364;2024-02-21T14:30:59;4.25;;;3.20;;
28625;SDS011;18905;42.668;23.364;2024-02-21T14:33:25;5.05;;;3.83;;